createdAt,value
2023-03-08T00:01:15.009Z,68.13
2023-03-08T00:03:43.494Z,65.40
2023-03-08T00:06:14.848Z,67.80
2023-03-08T00:08:43.981Z,69.00
2023-03-08T00:11:13.873Z,67.60
2023-03-08T00:13:42.628Z,66.27
2023-03-08T00:16:14.586Z,63.77
2023-03-08T00:18:43.438Z,61.10
2023-03-08T00:21:13.987Z,62.47
2023-03-08T00:23:42.499Z,60.93
2023-03-08T00:26:11.752Z,56.57
2023-03-08T00:28:40.777Z,59.37
2023-03-08T00:31:10.474Z,57.70
2023-03-08T00:33:40.404Z,59.20
2023-03-08T00:36:12.913Z,57.03
2023-03-08T00:38:41.678Z,56.13
2023-03-08T00:41:10.462Z,59.40
2023-03-08T00:43:39.021Z,57.20
2023-03-08T00:46:07.947Z,60.20
2023-03-08T00:48:36.386Z,65.43
2023-03-08T00:51:06.221Z,65.97
2023-03-08T00:53:34.733Z,63.47
2023-03-08T00:56:03.184Z,72.83
2023-03-08T00:58:32.843Z,69.80
2023-03-08T01:01:01.605Z,75.97
2023-03-08T01:03:30.189Z,75.40
2023-03-08T01:05:59.327Z,74.80
2023-03-08T01:08:29.497Z,74.20
2023-03-08T01:10:59.877Z,79.27
2023-03-08T01:13:29.748Z,81.63
2023-03-08T01:15:58.417Z,80.13
2023-03-08T01:18:27.867Z,81.93
2023-03-08T01:21:00.502Z,81.87
2023-03-08T01:23:30.367Z,86.70
2023-03-08T01:26:02.685Z,82.77
2023-03-08T01:28:31.761Z,86.07
2023-03-08T01:31:03.366Z,92.30
2023-03-08T01:33:32.154Z,82.90
2023-03-08T01:36:00.910Z,83.37
2023-03-08T01:38:30.669Z,82.17
2023-03-08T01:41:00.525Z,85.80
2023-03-08T01:43:30.599Z,82.77
2023-03-08T01:46:15.876Z,84.10
2023-03-08T01:48:49.268Z,81.33
2023-03-08T01:51:22.359Z,79.40
2023-03-08T01:53:53.312Z,81.77
2023-03-08T01:56:23.487Z,77.27
2023-03-08T01:58:53.433Z,78.53
2023-03-08T02:01:22.132Z,77.13
2023-03-08T02:03:50.692Z,78.10
2023-03-08T02:06:20.641Z,75.23
2023-03-08T02:08:49.046Z,69.20
2023-03-08T02:11:22.039Z,70.43
2023-03-08T02:13:51.432Z,65.77
2023-03-08T02:16:20.951Z,62.37
2023-03-08T02:18:57.476Z,55.73
2023-03-08T02:21:26.684Z,53.37
2023-03-08T02:23:56.758Z,51.30
2023-03-08T02:26:25.571Z,48.87
2023-03-08T02:28:54.306Z,40.00
2023-03-08T02:31:22.810Z,38.77
2023-03-08T02:33:51.211Z,34.80
2023-03-08T02:36:19.632Z,29.50
2023-03-08T02:38:48.312Z,28.07
2023-03-08T02:41:18.120Z,27.07
2023-03-08T02:43:46.505Z,27.63
2023-03-08T02:46:15.748Z,24.50
2023-03-08T02:48:46.148Z,26.73
2023-03-08T02:51:14.631Z,27.73
2023-03-08T02:53:42.931Z,23.70
2023-03-08T02:56:11.321Z,27.07
2023-03-08T02:58:41.239Z,24.33
2023-03-08T03:01:13.745Z,26.93
2023-03-08T03:03:42.811Z,25.57
2023-03-08T03:06:16.464Z,27.80
2023-03-08T03:08:45.631Z,25.23
2023-03-08T03:11:14.744Z,30.30
2023-03-08T03:13:44.554Z,25.63
2023-03-08T03:16:15.045Z,27.33
2023-03-08T03:18:44.473Z,25.57
2023-03-08T03:21:14.196Z,27.80
2023-03-08T03:23:43.001Z,29.60
2023-03-08T03:26:13.631Z,30.97
2023-03-08T03:28:43.593Z,31.90
2023-03-08T03:31:13.208Z,31.60
2023-03-08T03:33:41.762Z,29.93
2023-03-08T03:36:12.137Z,30.40
2023-03-08T03:38:40.716Z,29.00
2023-03-08T03:41:11.420Z,31.63
2023-03-08T03:43:41.033Z,34.73
2023-03-08T03:46:13.232Z,33.63
2023-03-08T03:48:42.318Z,30.27
2023-03-08T03:51:13.050Z,31.80
2023-03-08T03:53:41.834Z,32.27
2023-03-08T03:56:12.920Z,32.47
2023-03-08T03:58:42.215Z,29.57
2023-03-08T04:01:15.169Z,32.60
2023-03-08T04:03:43.721Z,32.60
2023-03-08T04:06:15.367Z,36.47
2023-03-08T04:08:44.369Z,36.30
2023-03-08T04:11:14.414Z,34.07
2023-03-08T04:13:43.658Z,34.30
2023-03-08T04:16:15.053Z,35.70
2023-03-08T04:18:44.062Z,33.47
2023-03-08T04:21:12.937Z,35.10
2023-03-08T04:23:41.514Z,33.53
2023-03-08T04:26:09.874Z,37.53
2023-03-08T04:28:38.594Z,33.37
2023-03-08T04:31:15.508Z,34.20
2023-03-08T04:33:44.248Z,35.43
2023-03-08T04:36:12.701Z,35.83
2023-03-08T04:38:41.737Z,40.87
2023-03-08T04:41:12.219Z,35.57
2023-03-08T04:43:41.582Z,32.33
2023-03-08T04:46:10.398Z,30.90
2023-03-08T04:48:40.496Z,35.83
2023-03-08T04:51:09.713Z,32.27
2023-03-08T04:53:39.171Z,31.93
2023-03-08T04:56:08.638Z,29.83
2023-03-08T04:58:37.957Z,30.37
2023-03-08T05:01:13.622Z,29.37
2023-03-08T05:03:43.622Z,27.20
2023-03-08T05:06:14.122Z,24.20
2023-03-08T05:08:42.828Z,25.23
2023-03-08T05:11:11.373Z,28.33
2023-03-08T05:13:40.375Z,24.27
2023-03-08T05:16:09.554Z,23.63
2023-03-08T05:18:38.275Z,27.07
2023-03-08T05:21:09.685Z,25.33
2023-03-08T05:23:38.504Z,25.83
2023-03-08T05:26:08.479Z,27.13
2023-03-08T05:28:38.175Z,27.40
2023-03-08T05:31:08.242Z,31.07
2023-03-08T05:33:37.180Z,34.37
2023-03-08T05:36:07.997Z,34.33
2023-03-08T05:38:36.494Z,36.23
2023-03-08T05:41:06.950Z,40.70
2023-03-08T05:43:35.734Z,42.37
2023-03-08T05:46:05.825Z,45.13
2023-03-08T05:48:36.571Z,43.00
2023-03-08T05:51:08.937Z,40.50
2023-03-08T05:53:37.720Z,39.47
2023-03-08T05:56:10.765Z,48.43
2023-03-08T05:58:41.935Z,48.37
2023-03-08T06:01:13.436Z,45.00
2023-03-08T06:03:41.856Z,46.17
2023-03-08T06:06:11.608Z,41.37
2023-03-08T06:08:40.410Z,45.93
2023-03-08T06:11:08.865Z,44.77
2023-03-08T06:13:37.344Z,38.43
2023-03-08T06:16:06.738Z,45.37
2023-03-08T06:18:36.658Z,40.67
2023-03-08T06:21:06.798Z,44.53
2023-03-08T06:23:37.377Z,38.23
2023-03-08T06:26:07.353Z,40.93
2023-03-08T06:28:36.599Z,37.90
2023-03-08T06:31:05.586Z,38.17
2023-03-08T06:33:35.321Z,42.70
2023-03-08T06:36:05.340Z,40.50
2023-03-08T06:38:37.409Z,40.87
2023-03-08T06:41:06.787Z,30.20
2023-03-08T06:43:35.753Z,44.70
2023-03-08T06:46:05.764Z,48.60
2023-03-08T06:48:34.768Z,53.67
2023-03-08T06:51:03.264Z,54.27
2023-03-08T06:53:31.779Z,53.63
2023-03-08T06:56:03.132Z,46.83
2023-03-08T06:58:31.603Z,54.90
2023-03-08T07:01:00.646Z,57.40
2023-03-08T07:03:29.376Z,65.47
2023-03-08T07:06:00.663Z,60.87
2023-03-08T07:08:29.702Z,57.03
2023-03-08T07:10:59.480Z,38.57
2023-03-08T07:13:29.952Z,36.57
2023-03-08T07:15:59.088Z,29.40
2023-03-08T07:18:28.008Z,36.27
2023-03-08T07:20:57.485Z,39.23
2023-03-08T07:23:26.248Z,36.53
2023-03-08T07:25:54.681Z,35.00
2023-03-08T07:28:23.170Z,30.73
2023-03-08T07:30:54.325Z,23.83
2023-03-08T07:33:23.124Z,25.23
2023-03-08T07:35:51.781Z,21.73
2023-03-08T07:38:20.530Z,18.70
2023-03-08T07:40:56.112Z,18.77
2023-03-08T07:43:24.703Z,21.00
2023-03-08T07:45:54.420Z,21.17
2023-03-08T07:48:23.327Z,21.60
2023-03-08T07:50:51.787Z,26.97
2023-03-08T07:53:20.056Z,27.00
2023-03-08T07:55:48.377Z,24.63
2023-03-08T07:58:17.140Z,28.23
2023-03-08T08:00:45.683Z,24.37
2023-03-08T08:03:15.536Z,28.73
2023-03-08T08:05:44.102Z,27.63
2023-03-08T08:08:13.979Z,26.63
2023-03-08T08:10:42.388Z,24.57
2023-03-08T08:13:10.941Z,29.73
2023-03-08T08:15:39.441Z,30.17
2023-03-08T08:18:07.823Z,30.20
2023-03-08T08:20:37.975Z,28.67
2023-03-08T08:23:06.940Z,26.57
2023-03-08T08:25:35.344Z,18.80
2023-03-08T08:28:04.515Z,21.57
2023-03-08T08:30:32.988Z,20.90
2023-03-08T08:33:03.505Z,20.40
2023-03-08T08:35:42.665Z,23.17
2023-03-08T08:38:13.656Z,21.30
2023-03-08T08:40:42.196Z,24.27
2023-03-08T08:43:10.488Z,23.90
2023-03-08T08:45:43.262Z,23.80
2023-03-08T08:48:11.895Z,25.53
2023-03-08T08:50:40.600Z,24.30
2023-03-08T08:53:09.114Z,21.33
2023-03-08T08:55:41.201Z,21.73
2023-03-08T08:58:10.506Z,25.90
2023-03-08T09:00:38.886Z,26.80
2023-03-08T09:03:07.962Z,23.73
2023-03-08T09:05:40.403Z,27.33
2023-03-08T09:08:09.633Z,26.00
2023-03-08T09:10:41.382Z,25.03
2023-03-08T09:13:09.982Z,28.83
2023-03-08T09:15:38.440Z,22.40
2023-03-08T09:18:07.300Z,25.07
2023-03-08T09:20:35.717Z,28.00
2023-03-08T09:23:04.299Z,23.50
2023-03-08T09:25:32.887Z,26.70
2023-03-08T09:28:02.611Z,21.17
2023-03-08T09:30:33.183Z,25.03
2023-03-08T09:33:02.265Z,20.30
2023-03-08T09:35:30.715Z,20.07
2023-03-08T09:37:59.910Z,21.80
2023-03-08T09:40:29.837Z,22.73
2023-03-08T09:43:06.792Z,19.23
2023-03-08T09:45:35.391Z,21.80
2023-03-08T09:48:11.118Z,23.47
2023-03-08T09:50:47.122Z,23.63
2023-03-08T09:53:22.123Z,21.97
2023-03-08T09:55:54.178Z,21.93
2023-03-08T09:58:33.760Z,19.83
2023-03-08T10:01:14.516Z,20.23
2023-03-08T10:04:04.667Z,21.70
2023-03-08T10:06:37.892Z,23.47
2023-03-08T10:09:21.034Z,21.30
2023-03-08T10:11:59.648Z,21.20
2023-03-08T10:14:33.368Z,19.27
2023-03-08T10:17:05.360Z,23.17
2023-03-08T10:19:40.035Z,20.00
2023-03-08T10:22:14.604Z,23.17
2023-03-08T10:24:49.145Z,22.13
2023-03-08T10:27:21.845Z,23.13
2023-03-08T10:29:55.956Z,18.97
2023-03-08T10:32:25.078Z,16.27
2023-03-08T10:34:53.654Z,20.87
2023-03-08T10:37:24.264Z,20.70
2023-03-08T10:39:54.917Z,23.40
2023-03-08T10:42:25.661Z,22.20
2023-03-08T10:44:59.089Z,19.77
2023-03-08T10:47:29.277Z,19.30
2023-03-08T10:50:13.320Z,20.47
2023-03-08T10:52:42.420Z,21.83
2023-03-08T10:55:13.862Z,23.27
2023-03-08T10:57:45.705Z,28.73
2023-03-08T11:00:31.156Z,25.73
2023-03-08T11:03:21.853Z,30.77
2023-03-08T11:05:55.004Z,33.33
2023-03-08T11:08:26.225Z,45.67
2023-03-08T11:11:12.061Z,29.47
2023-03-08T11:13:42.988Z,32.30
2023-03-08T11:16:35.432Z,33.63
2023-03-08T11:19:12.457Z,31.47
2023-03-08T11:21:50.886Z,30.77
2023-03-08T11:24:29.592Z,29.50
2023-03-08T11:27:11.544Z,25.13
2023-03-08T11:29:46.896Z,28.63
2023-03-08T11:32:32.150Z,25.90
2023-03-08T11:35:17.280Z,30.50
2023-03-08T11:37:51.713Z,27.97
2023-03-08T11:40:25.248Z,27.20
2023-03-08T11:43:05.548Z,29.00
2023-03-08T11:45:38.972Z,29.53
2023-03-08T11:48:47.861Z,24.67
2023-03-08T11:51:23.745Z,31.67
2023-03-08T11:54:02.969Z,25.93
2023-03-08T11:56:44.112Z,28.20
2023-03-08T11:59:20.852Z,28.47
2023-03-08T12:01:53.121Z,29.87
2023-03-08T12:04:28.155Z,30.70
2023-03-08T12:06:57.634Z,27.47
2023-03-08T12:09:31.832Z,31.47
2023-03-08T12:12:05.082Z,35.60
2023-03-08T12:14:35.605Z,29.30
2023-03-08T12:17:11.034Z,33.63
2023-03-08T12:19:44.815Z,35.87
2023-03-08T12:22:27.978Z,31.70
2023-03-08T12:25:01.999Z,33.63
2023-03-08T12:27:38.151Z,43.87
2023-03-08T12:30:16.841Z,39.30
2023-03-08T12:32:45.939Z,37.90
2023-03-08T12:35:29.992Z,34.87
2023-03-08T12:38:00.747Z,35.87
2023-03-08T12:40:38.827Z,37.37
2023-03-08T12:43:10.337Z,36.67
2023-03-08T12:45:39.995Z,41.20
2023-03-08T12:48:19.790Z,42.27
2023-03-08T12:51:00.592Z,44.10
2023-03-08T12:53:36.237Z,39.77
2023-03-08T12:56:07.739Z,42.03
2023-03-08T12:58:39.320Z,41.93
2023-03-08T13:01:24.058Z,45.43
2023-03-08T13:03:52.654Z,48.73
2023-03-08T13:07:12.353Z,47.97
2023-03-08T13:09:51.792Z,46.40
2023-03-08T13:12:29.494Z,51.23
2023-03-08T13:15:17.429Z,53.13
2023-03-08T13:17:51.382Z,49.97
2023-03-08T13:20:24.255Z,53.27
2023-03-08T13:23:03.083Z,54.73
2023-03-08T13:25:41.980Z,48.60
2023-03-08T13:28:12.234Z,53.20
2023-03-08T13:30:47.338Z,55.43
2023-03-08T13:33:18.940Z,59.13
2023-03-08T13:35:59.385Z,52.53
2023-03-08T13:38:31.596Z,56.63
2023-03-08T13:41:01.408Z,50.97
2023-03-08T13:43:30.885Z,56.40
2023-03-08T13:46:01.730Z,58.50
2023-03-08T13:48:32.805Z,56.57
2023-03-08T13:51:02.002Z,57.43
2023-03-08T13:53:33.647Z,84.03
2023-03-08T13:56:04.222Z,54.33
2023-03-08T13:58:35.280Z,59.83
2023-03-08T14:01:06.218Z,62.03
2023-03-08T14:03:34.924Z,56.50
2023-03-08T14:06:03.528Z,60.97
2023-03-08T14:08:33.257Z,66.83
2023-03-08T14:11:04.517Z,56.80
2023-03-08T14:13:35.369Z,62.77
2023-03-08T14:16:05.740Z,66.37
2023-03-08T14:18:37.000Z,65.53
2023-03-08T14:21:08.730Z,75.37
2023-03-08T14:23:42.485Z,70.53
2023-03-08T14:26:26.233Z,74.10
2023-03-08T14:29:11.034Z,81.87
2023-03-08T14:31:39.898Z,80.20
2023-03-08T14:34:20.378Z,78.70
2023-03-08T14:36:55.538Z,82.50
2023-03-08T14:39:28.746Z,88.33
2023-03-08T14:41:57.556Z,95.83
2023-03-08T14:44:29.130Z,89.33
2023-03-08T14:47:00.229Z,88.53
2023-03-08T14:49:30.516Z,90.80
2023-03-08T14:51:59.398Z,83.87
2023-03-08T14:54:35.274Z,82.70
2023-03-08T14:57:16.735Z,85.07
2023-03-08T14:59:45.417Z,82.53
2023-03-08T15:02:15.206Z,82.37
2023-03-08T15:04:44.649Z,86.43
2023-03-08T15:07:20.336Z,86.30
2023-03-08T15:09:51.231Z,88.00
2023-03-08T15:12:19.931Z,90.60
2023-03-08T15:14:48.356Z,83.93
2023-03-08T15:17:16.911Z,90.13
2023-03-08T15:19:45.595Z,89.93
2023-03-08T15:22:16.014Z,90.73
2023-03-08T15:24:44.604Z,92.80
2023-03-08T15:27:17.387Z,91.60
2023-03-08T15:29:45.840Z,87.70
2023-03-08T15:32:14.276Z,93.80
2023-03-08T15:34:42.792Z,93.50
2023-03-08T15:37:15.738Z,89.67
2023-03-08T15:39:44.232Z,89.37
2023-03-08T15:42:12.723Z,83.93
2023-03-08T15:44:42.439Z,82.37
2023-03-08T15:47:11.391Z,90.13
2023-03-08T15:49:40.382Z,94.00
2023-03-08T15:52:08.953Z,104.23
2023-03-08T15:54:39.249Z,92.20
2023-03-08T15:57:07.669Z,94.47
2023-03-08T15:59:36.886Z,90.70
2023-03-08T16:02:06.572Z,89.87
2023-03-08T16:04:35.305Z,97.20
2023-03-08T16:07:04.145Z,94.37
2023-03-08T16:09:32.598Z,98.07
2023-03-08T16:12:01.197Z,101.03
2023-03-08T16:14:29.935Z,94.67
2023-03-08T16:16:58.437Z,95.90
2023-03-08T16:19:31.719Z,97.30
2023-03-08T16:22:01.005Z,83.13
2023-03-08T16:24:29.593Z,95.03
2023-03-08T16:26:59.348Z,98.97
2023-03-08T16:29:28.396Z,98.90
2023-03-08T16:31:58.061Z,95.37
2023-03-08T16:34:28.674Z,102.13
2023-03-08T16:36:57.769Z,100.70
2023-03-08T16:39:26.924Z,97.17
2023-03-08T16:41:55.293Z,94.27
2023-03-08T16:44:25.993Z,97.10
2023-03-08T16:46:54.405Z,97.30
2023-03-08T16:49:28.198Z,91.53
2023-03-08T16:51:58.410Z,96.37
2023-03-08T16:54:26.885Z,96.77
2023-03-08T16:56:55.326Z,98.57
2023-03-08T16:59:23.875Z,95.57
2023-03-08T17:01:52.278Z,96.73
2023-03-08T17:04:22.731Z,99.67
2023-03-08T17:06:51.421Z,99.93
2023-03-08T17:09:21.550Z,98.00
2023-03-08T17:11:50.045Z,96.13
2023-03-08T17:14:18.475Z,84.30
2023-03-08T17:16:46.875Z,100.97
2023-03-08T17:19:15.581Z,97.80
2023-03-08T17:21:43.960Z,95.13
2023-03-08T17:24:14.580Z,95.83
2023-03-08T17:26:46.390Z,96.83
2023-03-08T17:29:15.575Z,101.50
2023-03-08T17:31:44.151Z,87.33
2023-03-08T17:34:12.804Z,98.13
2023-03-08T17:36:41.462Z,89.90
2023-03-08T17:39:10.243Z,93.00
2023-03-08T17:41:39.476Z,96.87
2023-03-08T17:44:09.374Z,84.80
2023-03-08T17:46:38.067Z,82.80
2023-03-08T17:49:07.089Z,84.73
2023-03-08T17:51:35.634Z,81.47
2023-03-08T17:54:04.953Z,84.20
2023-03-08T17:56:36.541Z,91.07
2023-03-08T17:59:05.375Z,83.70
2023-03-08T18:01:35.236Z,87.60
2023-03-08T18:04:06.174Z,96.20
2023-03-08T18:06:36.318Z,93.70
2023-03-08T18:09:06.733Z,96.90
2023-03-08T18:11:38.155Z,95.43
2023-03-08T18:14:06.738Z,96.13
2023-03-08T18:16:36.762Z,94.43
2023-03-08T18:19:06.545Z,94.20
2023-03-08T18:21:36.459Z,89.67
2023-03-08T18:24:06.174Z,92.10
2023-03-08T18:26:34.834Z,85.73
2023-03-08T18:29:03.640Z,92.17
2023-03-08T18:31:35.061Z,89.87
2023-03-08T18:34:04.929Z,92.47
2023-03-08T18:36:33.944Z,100.10
2023-03-08T18:39:05.577Z,91.83
2023-03-08T18:41:34.486Z,100.67
2023-03-08T18:44:03.084Z,98.37
2023-03-08T18:46:33.283Z,100.23
2023-03-08T18:49:04.115Z,97.37
2023-03-08T18:51:34.803Z,101.27
2023-03-08T18:54:04.285Z,98.73
2023-03-08T18:56:32.919Z,98.77
2023-03-08T18:59:03.333Z,100.43
2023-03-08T19:01:32.473Z,106.27
2023-03-08T19:04:03.931Z,104.97
2023-03-08T19:06:34.070Z,111.63
2023-03-08T19:09:08.112Z,107.43
2023-03-08T19:11:36.583Z,107.33
2023-03-08T19:14:05.099Z,109.20
2023-03-08T19:16:35.005Z,100.13
2023-03-08T19:19:05.837Z,104.80
2023-03-08T19:21:37.154Z,120.17
2023-03-08T19:24:06.620Z,109.40
2023-03-08T19:26:41.225Z,101.37
2023-03-08T19:29:11.878Z,104.37
2023-03-08T19:31:42.321Z,95.57
2023-03-08T19:34:11.494Z,97.57
2023-03-08T19:36:41.848Z,92.53
2023-03-08T19:39:12.190Z,98.50
2023-03-08T19:41:40.596Z,91.27
2023-03-08T19:44:09.949Z,91.40
2023-03-08T19:46:39.286Z,98.90
2023-03-08T19:49:09.241Z,92.10
2023-03-08T19:51:37.935Z,101.30
2023-03-08T19:54:07.793Z,98.53
2023-03-08T19:56:36.310Z,94.37
2023-03-08T19:59:05.129Z,94.53
2023-03-08T20:01:33.735Z,98.13
2023-03-08T20:04:02.237Z,95.70
2023-03-08T20:06:32.742Z,100.90
2023-03-08T20:09:02.567Z,97.73
2023-03-08T20:11:32.360Z,103.90
2023-03-08T20:14:00.778Z,98.23
2023-03-08T20:16:29.775Z,105.37
2023-03-08T20:18:58.535Z,100.40
2023-03-08T20:21:29.897Z,100.33
2023-03-08T20:23:59.561Z,104.53
2023-03-08T20:26:29.229Z,111.43
2023-03-08T20:29:00.271Z,116.63
2023-03-08T20:31:30.325Z,106.37
2023-03-08T20:33:58.884Z,116.67
2023-03-08T20:36:28.398Z,121.43
2023-03-08T20:38:58.328Z,131.80
2023-03-08T20:41:27.380Z,145.63
2023-03-08T20:43:56.245Z,117.47
2023-03-08T20:46:30.755Z,122.33
2023-03-08T20:48:59.270Z,133.17
2023-03-08T20:51:28.080Z,123.57
2023-03-08T20:53:56.970Z,124.93
2023-03-08T20:56:26.520Z,134.30
2023-03-08T20:58:57.112Z,125.73
2023-03-08T21:01:29.700Z,128.57
2023-03-08T21:03:58.405Z,134.37
2023-03-08T21:06:28.620Z,128.20
2023-03-08T21:08:57.601Z,132.20
2023-03-08T21:11:25.993Z,138.50
2023-03-08T21:13:55.444Z,141.70
2023-03-08T21:16:25.151Z,134.70
2023-03-08T21:18:57.240Z,133.60
2023-03-08T21:21:28.037Z,124.07
2023-03-08T21:23:57.758Z,120.87
2023-03-08T21:26:28.222Z,127.23
2023-03-08T21:28:59.125Z,131.47
2023-03-08T21:31:27.769Z,130.73
2023-03-08T21:33:57.848Z,132.27
2023-03-08T21:36:26.625Z,124.43
2023-03-08T21:38:56.173Z,119.20
2023-03-08T21:41:26.236Z,124.10
2023-03-08T21:43:54.788Z,139.57
2023-03-08T21:46:23.300Z,133.97
2023-03-08T21:48:52.367Z,121.20
2023-03-08T21:51:22.104Z,129.10
2023-03-08T21:53:50.938Z,132.07
2023-03-08T21:56:19.786Z,127.43
2023-03-08T21:58:48.609Z,130.03
2023-03-08T22:01:21.815Z,125.97
2023-03-08T22:03:50.453Z,133.00
2023-03-08T22:06:18.934Z,125.53
2023-03-08T22:08:48.799Z,129.97
2023-03-08T22:11:17.731Z,123.40
2023-03-08T22:13:50.179Z,116.50
2023-03-08T22:16:18.868Z,117.97
2023-03-08T22:18:47.444Z,126.53
2023-03-08T22:21:15.945Z,113.80
2023-03-08T22:23:44.387Z,127.17
2023-03-08T22:26:14.273Z,124.83
2023-03-08T22:28:42.928Z,118.33
2023-03-08T22:31:12.552Z,110.77
2023-03-08T22:33:41.253Z,114.00
2023-03-08T22:36:11.657Z,105.20
2023-03-08T22:38:40.770Z,118.40
2023-03-08T22:41:15.430Z,107.43
2023-03-08T22:43:44.303Z,113.33
2023-03-08T22:46:16.176Z,113.87
2023-03-08T22:48:45.479Z,110.17
2023-03-08T22:51:15.681Z,110.63
2023-03-08T22:53:44.490Z,112.27
2023-03-08T22:56:20.998Z,112.00
2023-03-08T22:58:49.759Z,108.90
2023-03-08T23:01:19.759Z,120.03
2023-03-08T23:03:49.765Z,120.37
2023-03-08T23:06:19.204Z,123.23
2023-03-08T23:08:48.693Z,121.77
2023-03-08T23:11:18.358Z,124.97
2023-03-08T23:13:46.953Z,120.70
2023-03-08T23:16:17.055Z,116.37
2023-03-08T23:18:48.413Z,109.27
2023-03-08T23:21:18.454Z,118.63
2023-03-08T23:23:46.933Z,105.90
2023-03-08T23:26:19.034Z,108.23
2023-03-08T23:28:47.684Z,105.77
2023-03-08T23:31:18.514Z,99.40
2023-03-08T23:33:47.296Z,102.17
2023-03-08T23:36:19.361Z,97.60
2023-03-08T23:38:47.910Z,96.23
2023-03-08T23:41:18.451Z,99.43
2023-03-08T23:43:47.304Z,101.63
2023-03-08T23:46:19.062Z,100.70
2023-03-08T23:48:49.374Z,105.80
2023-03-08T23:51:19.498Z,97.03
2023-03-08T23:53:50.782Z,96.40
2023-03-08T23:56:26.463Z,100.60
2023-03-08T23:58:56.216Z,96.70
